Аэропорт: Минеральные Воды. Минеральные Воды

ICAO: URMM

METAR:
2019-11-21 09:00:00
URMM 210900Z 09008MPS 4100 -FZDZ BR OVC005 M05/M06 Q1033 R12/790137 NOSIG RMK MT OBSC QFE746/0995
METAR:
2019-11-21 08:00:00
TAF URMM 210800Z 2109/2209 09007G12MPS 5000 -SN BR OVC007 TXM04/2111Z TNM07/2203Z TEMPO 2109/2115 0300 FZRA FZFG OVC002 TEMPO 2115/2209 0300 +SN BLSN BKN002 OVC010